createdAt,value
2018-06-15T00:04:10.311Z,17.30
2018-06-15T00:09:13.988Z,17.20
2018-06-15T00:14:17.725Z,16.90
2018-06-15T00:19:21.416Z,16.90
2018-06-15T00:24:25.223Z,16.80
2018-06-15T00:29:28.847Z,16.70
2018-06-15T00:34:32.487Z,16.70
2018-06-15T00:39:36.126Z,16.70
2018-06-15T00:44:39.804Z,16.60
2018-06-15T00:49:43.449Z,16.60
2018-06-15T00:54:47.469Z,16.60
2018-06-15T00:59:51.158Z,16.50
2018-06-15T01:04:54.856Z,16.40
2018-06-15T01:09:58.700Z,16.30
2018-06-15T01:15:02.737Z,16.20
2018-06-15T01:20:06.399Z,16.20
2018-06-15T01:25:10.078Z,16.20
2018-06-15T01:30:15.589Z,16.10
2018-06-15T01:35:19.251Z,16.00
2018-06-15T01:40:24.068Z,16.00
2018-06-15T01:45:27.704Z,16.00
2018-06-15T01:50:31.519Z,15.90
2018-06-15T01:55:36.092Z,15.90
2018-06-15T02:00:39.792Z,15.80
2018-06-15T02:05:43.445Z,15.70
2018-06-15T02:10:47.787Z,15.70
2018-06-15T02:15:51.824Z,15.60
2018-06-15T02:20:55.516Z,15.50
2018-06-15T02:26:00.210Z,15.40
2018-06-15T02:31:04.025Z,15.30
2018-06-15T02:36:07.694Z,15.30
2018-06-15T02:41:12.271Z,15.40
2018-06-15T02:46:16.412Z,15.40
2018-06-15T02:56:24.020Z,15.40
2018-06-15T03:01:28.460Z,15.40
2018-06-15T03:06:32.844Z,15.40
2018-06-15T03:11:36.498Z,15.30
2018-06-15T03:16:40.392Z,15.30
2018-06-15T03:21:44.609Z,15.20
2018-06-15T03:26:49.183Z,15.20
2018-06-15T03:31:52.838Z,15.20
2018-06-15T03:36:56.559Z,15.20
2018-06-15T03:42:00.235Z,15.10
2018-06-15T03:47:04.060Z,15.10
2018-06-15T03:52:09.606Z,15.10
2018-06-15T03:57:13.294Z,15.20
2018-06-15T04:02:20.042Z,15.20
2018-06-15T04:07:23.848Z,15.20
2018-06-15T04:12:27.941Z,15.10
2018-06-15T04:17:31.615Z,15.10
2018-06-15T04:22:35.804Z,15.20
2018-06-15T04:27:39.513Z,15.20
2018-06-15T04:32:43.530Z,15.30
2018-06-15T04:37:47.628Z,15.50
2018-06-15T04:42:51.290Z,15.50
2018-06-15T04:47:54.989Z,15.70
2018-06-15T04:52:58.791Z,15.90
2018-06-15T04:58:05.200Z,16.10
2018-06-15T05:03:11.605Z,16.20
2018-06-15T05:08:15.259Z,16.40
2018-06-15T05:13:18.983Z,16.60
2018-06-15T05:18:22.677Z,16.80
2018-06-15T05:23:26.493Z,17.00
2018-06-15T05:28:30.167Z,17.20
2018-06-15T05:33:33.835Z,17.20
2018-06-15T05:38:37.623Z,17.30
2018-06-15T05:43:41.703Z,17.30
2018-06-15T05:48:45.387Z,17.50
2018-06-15T05:53:49.184Z,17.60
2018-06-15T05:58:52.928Z,17.70
2018-06-15T06:03:57.089Z,17.90
2018-06-15T06:09:00.801Z,18.00
2018-06-15T06:14:04.524Z,18.10
2018-06-15T06:19:08.214Z,18.10
2018-06-15T06:24:11.905Z,18.20
2018-06-15T06:29:16.021Z,18.40
2018-06-15T06:34:20.655Z,18.70
2018-06-15T06:39:24.352Z,18.90
2018-06-15T06:44:28.057Z,19.00
2018-06-15T06:49:31.745Z,19.20
2018-06-15T06:54:36.252Z,19.20
2018-06-15T06:59:39.977Z,19.20
2018-06-15T07:09:47.172Z,19.50
2018-06-15T07:14:54.474Z,19.70
2018-06-15T07:19:58.331Z,19.80
2018-06-15T07:25:02.036Z,19.60
2018-06-15T07:30:05.917Z,19.90
2018-06-15T07:35:10.053Z,19.80
2018-06-15T07:40:13.784Z,19.90
2018-06-15T07:45:17.524Z,20.00
2018-06-15T07:50:21.623Z,20.10
2018-06-15T07:55:27.599Z,20.10
2018-06-15T08:00:32.040Z,20.00
2018-06-15T08:05:36.078Z,20.00
2018-06-15T08:10:40.924Z,20.20
2018-06-15T08:15:44.697Z,20.40
2018-06-15T08:20:48.726Z,20.80
2018-06-15T08:25:52.558Z,20.90
2018-06-15T08:30:56.504Z,21.00
2018-06-15T08:36:00.267Z,20.80
2018-06-15T08:41:04.332Z,21.20
2018-06-15T08:46:08.059Z,21.20
2018-06-15T08:51:11.737Z,21.20
2018-06-15T08:56:16.131Z,21.20
2018-06-15T09:01:20.318Z,21.00
2018-06-15T09:06:24.334Z,21.10
2018-06-15T09:11:28.901Z,21.80
2018-06-15T09:16:32.582Z,21.70
2018-06-15T09:21:36.976Z,21.80
2018-06-15T09:26:41.790Z,22.00
2018-06-15T09:31:45.810Z,22.60
2018-06-15T09:36:50.109Z,23.00
2018-06-15T09:41:53.822Z,23.20
2018-06-15T09:46:57.504Z,23.60
2018-06-15T09:52:02.398Z,23.70
2018-06-15T09:57:06.191Z,23.70
2018-06-15T10:02:10.356Z,23.60
2018-06-15T10:07:14.985Z,23.50
2018-06-15T10:12:19.056Z,24.00
2018-06-15T10:17:22.747Z,24.50
2018-06-15T10:22:26.488Z,25.10
2018-06-15T10:27:30.123Z,25.10
2018-06-15T10:32:33.777Z,25.40
2018-06-15T10:37:37.522Z,25.70
2018-06-15T10:42:41.799Z,25.70
2018-06-15T10:47:45.890Z,26.00
2018-06-15T10:52:49.602Z,26.20
2018-06-15T10:57:53.268Z,26.40
2018-06-15T11:02:57.033Z,26.50
2018-06-15T11:08:00.831Z,26.00
2018-06-15T11:13:04.557Z,26.10
2018-06-15T11:18:08.693Z,26.60
2018-06-15T11:23:12.611Z,26.80
2018-06-15T11:28:16.280Z,26.50
2018-06-15T11:33:24.102Z,26.60
2018-06-15T11:38:29.657Z,26.50
2018-06-15T11:43:33.370Z,26.80
2018-06-15T11:48:37.397Z,27.00
2018-06-15T11:53:41.313Z,27.20
2018-06-15T11:58:45.641Z,27.20
2018-06-15T12:03:49.332Z,27.40
2018-06-15T12:08:53.053Z,27.40
2018-06-15T12:13:57.454Z,27.50
2018-06-15T12:19:01.160Z,27.60
2018-06-15T12:24:05.059Z,27.90
2018-06-15T12:34:12.921Z,28.50
2018-06-15T12:39:16.597Z,28.50
2018-06-15T12:44:20.974Z,28.70
2018-06-15T12:49:24.669Z,28.90
2018-06-15T12:54:28.524Z,29.30
2018-06-15T12:59:35.427Z,29.30
2018-06-15T13:04:39.218Z,29.30
2018-06-15T13:09:42.998Z,28.80
2018-06-15T13:14:47.424Z,29.10
2018-06-15T13:19:51.667Z,29.20
2018-06-15T13:29:58.920Z,29.90
2018-06-15T13:45:09.492Z,30.00
2018-06-15T13:55:17.365Z,30.60
2018-06-15T14:00:21.421Z,30.80
2018-06-15T14:05:25.514Z,30.80
2018-06-15T14:10:29.276Z,31.00
2018-06-15T14:15:33.444Z,31.40
2018-06-15T14:20:37.168Z,31.40
2018-06-15T14:25:40.864Z,31.60
2018-06-15T14:30:44.569Z,31.10
2018-06-15T14:35:49.251Z,31.20
2018-06-15T14:40:52.918Z,31.40
2018-06-15T14:45:56.687Z,31.70
2018-06-15T14:51:01.501Z,32.00
2018-06-15T14:56:05.171Z,31.90
2018-06-15T15:01:08.882Z,32.00
2018-06-15T15:06:13.236Z,32.00
2018-06-15T15:11:17.037Z,31.90
2018-06-15T15:16:20.719Z,31.50
2018-06-15T15:21:24.391Z,31.30
2018-06-15T15:26:28.096Z,31.20
2018-06-15T15:31:31.787Z,31.20
2018-06-15T15:36:36.421Z,31.50
2018-06-15T15:41:40.205Z,31.60
2018-06-15T15:46:43.875Z,31.60
2018-06-15T15:51:48.129Z,31.40
2018-06-15T15:56:54.820Z,31.70
2018-06-15T16:01:58.543Z,31.80
2018-06-15T16:07:02.824Z,31.90
2018-06-15T16:12:06.716Z,31.90
2018-06-15T16:17:10.464Z,31.90
2018-06-15T16:22:14.140Z,31.70
2018-06-15T16:27:17.831Z,31.30
2018-06-15T16:39:58.787Z,31.00
2018-06-15T16:45:02.476Z,30.30
2018-06-15T16:50:06.282Z,30.00
2018-06-15T16:55:12.260Z,30.00
2018-06-15T17:00:16.024Z,29.90
2018-06-15T17:05:20.259Z,29.90
2018-06-15T17:10:23.971Z,29.90
2018-06-15T17:15:28.827Z,29.80
2018-06-15T17:20:32.477Z,29.90
2018-06-15T17:25:38.920Z,29.90
2018-06-15T17:30:43.207Z,29.60
2018-06-15T17:35:47.949Z,29.60
2018-06-15T17:40:52.049Z,29.40
2018-06-15T17:45:56.408Z,29.20
2018-06-15T17:51:00.491Z,28.90
2018-06-15T17:56:04.663Z,28.60
2018-06-15T18:01:08.408Z,28.20
2018-06-15T18:06:14.216Z,28.00
2018-06-15T18:11:18.044Z,27.70
2018-06-15T18:16:23.671Z,27.50
2018-06-15T18:21:27.872Z,27.30
2018-06-15T18:26:31.721Z,27.30
2018-06-15T18:31:37.559Z,27.20
2018-06-15T18:36:41.235Z,27.00
2018-06-15T18:41:45.128Z,26.80
2018-06-15T18:46:49.811Z,26.50
2018-06-15T18:51:53.653Z,26.20
2018-06-15T18:56:57.327Z,25.80
2018-06-15T19:02:01.465Z,25.50
2018-06-15T19:07:05.395Z,25.30
2018-06-15T19:12:10.562Z,25.10
2018-06-15T19:17:14.690Z,25.00
2018-06-15T19:22:18.971Z,24.90
2018-06-15T19:27:22.915Z,24.60
2018-06-15T19:32:26.567Z,24.30
2018-06-15T19:37:30.253Z,24.10
2018-06-15T19:42:34.619Z,23.90
2018-06-15T19:47:38.314Z,23.80
2018-06-15T19:52:41.992Z,23.60
2018-06-15T19:57:45.908Z,23.20
2018-06-15T20:02:49.599Z,23.00
2018-06-15T20:07:54.126Z,22.80
2018-06-15T20:18:01.122Z,22.60
2018-06-15T20:23:05.756Z,22.40
2018-06-15T20:28:09.612Z,22.30
2018-06-15T20:33:13.399Z,22.10
2018-06-15T20:38:19.397Z,21.80
2018-06-15T20:43:25.360Z,21.80
2018-06-15T20:48:31.884Z,21.70
2018-06-15T20:53:36.360Z,21.50
2018-06-15T20:58:40.043Z,21.50
2018-06-15T21:03:43.805Z,21.40
2018-06-15T21:08:47.981Z,21.20
2018-06-15T21:13:52.387Z,21.00
2018-06-15T21:18:56.995Z,20.90
2018-06-15T21:24:01.280Z,20.70
2018-06-15T21:29:05.724Z,20.70
2018-06-15T21:34:11.938Z,20.50
2018-06-15T21:39:17.864Z,20.50
2018-06-15T21:44:21.508Z,20.50
2018-06-15T21:49:25.210Z,20.40
2018-06-15T21:54:28.860Z,20.60
2018-06-15T21:59:32.521Z,20.60
2018-06-15T22:04:36.569Z,20.50
2018-06-15T22:09:40.252Z,20.30
2018-06-15T22:14:44.285Z,20.10
2018-06-15T22:19:49.945Z,20.00
2018-06-15T22:24:55.652Z,19.90
2018-06-15T22:35:08.342Z,19.70
2018-06-15T22:40:14.056Z,19.60
2018-06-15T22:45:18.006Z,19.50
2018-06-15T22:50:21.797Z,19.40
2018-06-15T22:55:25.630Z,19.30
2018-06-15T23:00:30.060Z,19.20
2018-06-15T23:05:33.726Z,19.10
2018-06-15T23:10:37.835Z,19.00
2018-06-15T23:15:41.645Z,19.00
2018-06-15T23:20:45.485Z,18.90
2018-06-15T23:25:51.469Z,18.90
2018-06-15T23:30:55.437Z,19.00
2018-06-15T23:35:59.209Z,18.90
2018-06-15T23:41:02.865Z,18.70
2018-06-15T23:46:06.760Z,18.60
2018-06-15T23:51:10.821Z,18.50
2018-06-15T23:56:14.626Z,18.40
